Time;durP1;ratioP1;P1;durP2;ratioP2;P2;SDS_P1;SDS_P2;PMS_P1;PMS_P2;Temp;Humidity;BMP_temperature;BMP_pressure;BME280_temperature;BME280_humidity;BME280_pressure;Samples;Min_cycle;Max_cycle;Signal;HPM_P1;HPM_P2
2023/06/12 00:01:02;;;;;;;4.47;3.05;;;;;;;16.69;100.00;94269.00;5097966;28;20046;-84
2023/06/12 00:03:28;;;;;;;5.18;3.40;;;;;;;16.81;100.00;94273.69;5097256;28;20036;-85
2023/06/12 00:05:59;;;;;;;8.32;3.80;;;;;;;16.40;100.00;94271.09;5079764;28;20030;-85
2023/06/12 00:08:27;;;;;;;7.97;4.20;;;;;;;16.36;100.00;94275.44;5096177;28;20123;-84
2023/06/12 00:10:52;;;;;;;5.88;4.03;;;;;;;16.41;100.00;94266.59;5079267;28;20028;-85
2023/06/12 00:13:18;;;;;;;5.28;3.60;;;;;;;16.32;100.00;94273.69;5096248;28;20032;-85
2023/06/12 00:15:43;;;;;;;9.10;3.78;;;;;;;16.32;100.00;94277.13;5096546;28;20327;-84
2023/06/12 00:18:09;;;;;;;6.55;3.78;;;;;;;16.51;100.00;94270.81;5096125;28;20028;-84
2023/06/12 00:20:34;;;;;;;8.00;3.90;;;;;;;16.19;100.00;94265.56;5096205;28;20040;-84
2023/06/12 00:23:00;;;;;;;8.57;4.57;;;;;;;16.20;100.00;94261.84;5097387;28;20028;-84
2023/06/12 00:25:26;;;;;;;9.02;4.88;;;;;;;16.42;100.00;94270.00;5097177;28;20028;-84
2023/06/12 00:27:51;;;;;;;7.10;4.90;;;;;;;16.55;100.00;94263.81;5096174;28;20036;-84
2023/06/12 00:30:16;;;;;;;7.82;4.55;;;;;;;16.57;100.00;94271.47;5096343;28;20039;-84
2023/06/12 00:32:42;;;;;;;7.95;5.60;;;;;;;16.69;100.00;94266.34;5096309;28;20043;-84
2023/06/12 00:35:08;;;;;;;14.65;6.22;;;;;;;16.61;100.00;94265.25;5096245;28;20063;-84
2023/06/12 00:37:33;;;;;;;10.10;5.35;;;;;;;16.64;100.00;94279.69;5095965;28;20034;-85
2023/06/12 00:40:06;;;;;;;12.88;5.60;;;;;;;16.65;100.00;94268.06;5095749;28;20333;-85
2023/06/12 00:42:38;;;;;;;9.73;5.47;;;;;;;16.36;100.00;94264.84;5096098;28;20124;-85
2023/06/12 00:45:03;;;;;;;7.80;5.10;;;;;;;16.58;100.00;94270.38;5095861;28;20024;-85
2023/06/12 00:47:29;;;;;;;7.35;4.72;;;;;;;16.63;100.00;94271.00;5096287;28;20452;-85
2023/06/12 00:49:57;;;;;;;9.18;6.28;;;;;;;16.64;100.00;94271.78;5096758;28;20375;-84
2023/06/12 00:52:24;;;;;;;10.48;5.82;;;;;;;16.60;100.00;94261.06;5096068;28;20027;-84
2023/06/12 00:54:50;;;;;;;14.25;6.57;;;;;;;16.13;100.00;94264.16;5095996;28;20437;-84
2023/06/12 00:57:16;;;;;;;8.80;6.13;;;;;;;15.78;100.00;94269.22;5078674;28;20126;-84
2023/06/12 00:59:41;;;;;;;12.38;7.57;;;;;;;15.68;100.00;94263.13;5078883;28;20422;-84
2023/06/12 01:02:09;;;;;;;16.05;7.80;;;;;;;15.75;100.00;94272.47;5095617;28;20032;-84
2023/06/12 01:04:37;;;;;;;12.50;7.07;;;;;;;15.96;100.00;94263.00;5095601;28;20063;-84
2023/06/12 01:07:29;;;;;;;10.38;6.88;;;;;;;16.11;100.00;94255.75;5095451;28;20028;-84
2023/06/12 01:10:24;;;;;;;11.95;7.03;;;;;;;16.25;100.00;94250.34;5095424;28;20040;-84
2023/06/12 01:12:51;;;;;;;14.15;7.47;;;;;;;16.15;100.00;94250.66;5096439;28;20051;-83
2023/06/12 01:15:16;;;;;;;11.18;7.78;;;;;;;16.15;100.00;94251.41;5098334;28;20451;-83
2023/06/12 01:17:41;;;;;;;14.07;8.23;;;;;;;16.23;100.00;94244.59;5100506;28;20028;-83
2023/06/12 01:20:11;;;;;;;15.43;9.70;;;;;;;16.29;100.00;94247.88;5099611;28;20032;-83
2023/06/12 01:22:43;;;;;;;15.95;9.90;;;;;;;16.42;100.00;94249.63;5099804;28;20417;-83
2023/06/12 01:25:32;;;;;;;15.48;9.57;;;;;;;16.37;100.00;94244.50;5099588;28;20032;-83
2023/06/12 01:28:37;;;;;;;15.98;9.52;;;;;;;16.34;100.00;94243.25;5099586;28;20039;-83
2023/06/12 01:31:56;;;;;;;18.27;10.88;;;;;;;16.05;100.00;94241.09;5092793;28;20093;-83
2023/06/12 01:34:26;;;;;;;17.55;10.90;;;;;;;16.04;100.00;94242.19;5092715;28;20451;-83
2023/06/12 01:37:05;;;;;;;20.85;11.48;;;;;;;16.09;100.00;94248.13;5099298;28;20031;-83
2023/06/12 01:39:36;;;;;;;20.80;12.43;;;;;;;16.25;100.00;94248.50;5099192;28;20038;-84
2023/06/12 01:42:03;;;;;;;19.60;12.13;;;;;;;16.30;100.00;94244.16;5099255;28;20024;-84
2023/06/12 01:44:28;;;;;;;17.10;10.05;;;;;;;16.39;100.00;94243.09;5082370;28;20340;-84
2023/06/12 01:46:54;;;;;;;18.23;9.82;;;;;;;16.48;100.00;94245.75;5100303;28;20039;-84
2023/06/12 01:49:19;;;;;;;16.92;9.65;;;;;;;16.45;100.00;94241.09;5098937;28;20381;-85
2023/06/12 01:51:45;;;;;;;14.75;9.48;;;;;;;16.42;100.00;94246.19;5100178;28;20039;-84
2023/06/12 01:54:11;;;;;;;20.88;11.50;;;;;;;16.32;100.00;94240.13;5082605;28;20031;-84
2023/06/12 01:56:36;;;;;;;14.43;10.00;;;;;;;16.25;100.00;94243.22;5082209;28;20024;-84
2023/06/12 01:59:02;;;;;;;11.50;7.53;;;;;;;16.33;100.00;94233.75;5098772;28;20330;-84
2023/06/12 02:01:29;;;;;;;11.27;6.85;;;;;;;16.36;100.00;94238.41;5098879;28;20077;-84
2023/06/12 02:03:56;;;;;;;9.93;6.35;;;;;;;16.35;100.00;94236.88;5099950;28;20114;-84
2023/06/12 02:06:21;;;;;;;10.30;6.47;;;;;;;16.29;100.00;94242.59;5099002;28;20455;-84
2023/06/12 02:08:47;;;;;;;10.60;5.88;;;;;;;16.26;100.00;94233.41;5098323;28;20036;-84
2023/06/12 02:11:13;;;;;;;12.38;7.15;;;;;;;16.22;100.00;94238.56;5098673;28;20059;-84
2023/06/12 02:13:39;;;;;;;10.38;5.47;;;;;;;16.31;100.00;94249.16;5098600;28;20031;-84
2023/06/12 02:16:06;;;;;;;7.30;4.97;;;;;;;16.22;100.00;94243.84;5099763;28;20028;-84
2023/06/12 02:18:32;;;;;;;8.57;4.75;;;;;;;16.21;100.00;94237.00;5081722;28;20020;-84
2023/06/12 02:20:57;;;;;;;7.32;4.70;;;;;;;16.26;100.00;94230.75;5098367;28;20146;-84
2023/06/12 02:23:23;;;;;;;6.38;4.30;;;;;;;16.24;100.00;94236.38;5098416;28;20034;-84
2023/06/12 02:25:48;;;;;;;7.93;4.90;;;;;;;16.24;100.00;94232.94;5097921;28;20032;-84
2023/06/12 02:28:13;;;;;;;8.25;5.03;;;;;;;16.10;100.00;94238.34;5099293;28;20438;-84
2023/06/12 02:30:39;;;;;;;14.32;5.25;;;;;;;16.06;100.00;94238.16;5099499;28;20042;-84
2023/06/12 02:33:09;;;;;;;7.85;5.60;;;;;;;15.95;100.00;94234.22;5098253;28;20030;-84
2023/06/12 02:35:37;;;;;;;9.88;6.10;;;;;;;16.04;100.00;94232.41;5099367;28;20031;-84
2023/06/12 02:38:02;;;;;;;10.10;6.25;;;;;;;16.00;100.00;94231.47;5097996;28;20024;-85
2023/06/12 02:40:28;;;;;;;9.52;5.95;;;;;;;16.05;100.00;94226.03;5099287;28;20036;-84
2023/06/12 02:42:53;;;;;;;10.77;6.22;;;;;;;16.10;100.00;94236.47;5081220;28;20322;-84
2023/06/12 02:45:21;;;;;;;12.07;6.85;;;;;;;15.92;100.00;94230.34;5099236;28;20115;-84
2023/06/12 02:47:46;;;;;;;12.30;6.90;;;;;;;15.76;100.00;94227.28;5097738;28;20344;-84
2023/06/12 02:50:12;;;;;;;10.70;6.25;;;;;;;15.79;100.00;94231.19;5097926;28;20039;-85
2023/06/12 02:52:40;;;;;;;13.75;6.15;;;;;;;15.90;100.00;94232.50;5099421;28;20059;-84
2023/06/12 02:55:06;;;;;;;11.25;6.35;;;;;;;15.75;100.00;94233.66;5098006;28;20024;-84
2023/06/12 02:57:32;;;;;;;10.18;5.57;;;;;;;15.95;100.00;94235.03;5099027;28;20461;-84
2023/06/12 02:59:57;;;;;;;12.50;5.72;;;;;;;15.90;100.00;94245.69;5098363;28;20024;-84
2023/06/12 03:02:23;;;;;;;17.05;6.10;;;;;;;15.87;100.00;94242.88;5098737;28;20038;-84
2023/06/12 03:04:48;;;;;;;10.35;5.70;;;;;;;15.97;100.00;94227.56;5097722;28;20399;-84
2023/06/12 03:07:16;;;;;;;10.88;5.30;;;;;;;15.92;100.00;94233.00;5097706;28;20038;-84
2023/06/12 03:09:42;;;;;;;9.32;4.78;;;;;;;16.01;100.00;94232.22;5097435;28;20023;-84
2023/06/12 03:12:08;;;;;;;7.78;4.85;;;;;;;15.96;100.00;94235.78;5097799;28;20081;-84
2023/06/12 03:14:33;;;;;;;10.70;5.32;;;;;;;15.91;100.00;94235.94;5080658;28;20028;-84
2023/06/12 03:16:59;;;;;;;8.43;4.72;;;;;;;16.06;100.00;94238.16;5098384;28;20415;-83
2023/06/12 03:19:25;;;;;;;6.85;4.80;;;;;;;16.27;100.00;94240.25;5097159;28;20027;-84
2023/06/12 03:21:50;;;;;;;6.28;4.45;;;;;;;16.00;100.00;94251.81;5096897;28;20035;-84
2023/06/12 03:24:15;;;;;;;11.20;5.47;;;;;;;16.18;100.00;94250.03;5098410;28;20024;-84
2023/06/12 03:26:41;;;;;;;8.05;5.10;;;;;;;16.35;100.00;94252.72;5098260;28;20053;-84
2023/06/12 03:29:07;;;;;;;8.93;4.70;;;;;;;16.39;100.00;94252.91;5094433;28;20062;-84
2023/06/12 03:31:33;;;;;;;7.78;4.45;;;;;;;16.49;100.00;94249.19;5097130;28;20030;-84
2023/06/12 03:33:58;;;;;;;7.28;4.82;;;;;;;16.40;100.00;94243.88;5097383;28;20024;-84
2023/06/12 03:36:37;;;;;;;9.35;5.63;;;;;;;16.33;100.00;94243.53;5097049;28;20504;-84
2023/06/12 03:39:02;;;;;;;17.25;7.22;;;;;;;16.21;100.00;94241.47;5096989;28;20024;-84
2023/06/12 03:41:30;;;;;;;11.55;7.07;;;;;;;16.33;100.00;94239.03;5096943;28;20035;-84
2023/06/12 03:43:55;;;;;;;12.63;7.85;;;;;;;16.20;100.00;94240.69;5131350;27;20376;-84
2023/06/12 03:46:20;;;;;;;15.50;8.10;;;;;;;16.35;100.00;94228.16;5097172;28;20036;-85
2023/06/12 03:48:46;;;;;;;14.02;7.22;;;;;;;16.32;100.00;94241.97;5096916;28;20059;-84
2023/06/12 03:51:11;;;;;;;13.80;8.10;;;;;;;16.33;100.00;94240.88;5079618;28;20028;-84
2023/06/12 03:53:37;;;;;;;15.85;6.93;;;;;;;15.82;100.00;94241.91;5096747;28;20084;-84
2023/06/12 03:56:03;;;;;;;17.88;7.53;;;;;;;16.32;100.00;94239.34;5096460;28;20106;-84
2023/06/12 03:58:28;;;;;;;19.13;11.65;;;;;;;16.31;100.00;94243.06;5096792;28;20055;-84
2023/06/12 04:00:54;;;;;;;18.67;10.80;;;;;;;16.36;100.00;94243.72;5096784;28;20445;-84
2023/06/12 04:03:21;;;;;;;19.02;9.80;;;;;;;16.40;100.00;94241.25;5096487;28;20039;-84
2023/06/12 04:05:49;;;;;;;16.33;9.77;;;;;;;16.43;100.00;94247.78;5096531;28;20107;-84
2023/06/12 04:08:14;;;;;;;17.70;10.38;;;;;;;16.51;100.00;94241.72;5079406;28;20040;-84
2023/06/12 04:10:40;;;;;;;20.13;9.38;;;;;;;16.61;100.00;94238.81;5096708;28;20046;-84
2023/06/12 04:13:06;;;;;;;16.83;9.80;;;;;;;16.64;100.00;94246.13;5097519;28;20024;-84
2023/06/12 04:15:31;;;;;;;19.92;11.00;;;;;;;16.52;100.00;94240.63;5096641;28;20518;-84
2023/06/12 04:17:59;;;;;;;16.77;9.73;;;;;;;16.59;100.00;94240.19;5096057;28;20128;-84
2023/06/12 04:20:29;;;;;;;18.85;10.77;;;;;;;16.43;100.00;94237.97;5097456;28;20032;-83
2023/06/12 04:22:56;;;;;;;13.70;7.97;;;;;;;16.25;100.00;94237.94;5096447;28;20036;-84
2023/06/12 04:25:23;;;;;;;20.23;9.40;;;;;;;15.85;100.00;94237.88;5079512;28;20027;-83
2023/06/12 04:27:48;;;;;;;17.67;9.13;;;;;;;16.04;100.00;94231.63;5095878;28;20024;-84
2023/06/12 04:30:15;;;;;;;15.35;7.88;;;;;;;16.45;100.00;94227.09;5096070;28;20099;-83
2023/06/12 04:32:41;;;;;;;10.98;7.85;;;;;;;16.60;100.00;94228.53;5079451;28;20054;-84
2023/06/12 04:35:07;;;;;;;14.68;7.82;;;;;;;16.76;100.00;94229.63;5096111;28;20028;-84
2023/06/12 04:37:32;;;;;;;12.73;7.20;;;;;;;16.88;100.00;94230.88;5095624;28;20040;-84
2023/06/12 04:39:57;;;;;;;13.85;8.27;;;;;;;16.64;100.00;94232.09;5095676;28;20024;-84
2023/06/12 04:42:24;;;;;;;14.55;7.70;;;;;;;16.23;100.00;94231.38;5095829;28;20345;-83
2023/06/12 04:44:49;;;;;;;12.73;7.60;;;;;;;16.84;100.00;94237.91;5079100;28;20053;-84
2023/06/12 04:47:16;;;;;;;13.07;7.32;;;;;;;17.22;100.00;94242.63;5096911;28;20441;-83
2023/06/12 04:49:45;;;;;;;14.80;7.20;;;;;;;17.38;100.00;94248.19;5095268;28;20031;-84
2023/06/12 04:52:12;;;;;;;12.55;6.55;;;;;;;17.32;100.00;94241.53;5079524;28;20408;-83
2023/06/12 04:54:41;;;;;;;10.40;6.30;;;;;;;17.38;100.00;94237.59;5095770;28;20024;-84
2023/06/12 04:57:09;;;;;;;8.77;6.10;;;;;;;17.45;100.00;94242.44;5081258;28;20033;-83
2023/06/12 04:59:37;;;;;;;12.48;6.55;;;;;;;17.51;100.00;94236.66;5092395;28;20020;-83
2023/06/12 05:02:03;;;;;;;11.93;5.72;;;;;;;17.62;100.00;94242.41;5075311;28;20023;-84
2023/06/12 05:04:28;;;;;;;7.80;5.53;;;;;;;17.79;100.00;94238.19;5076478;28;20020;-83
2023/06/12 05:06:55;;;;;;;7.30;5.57;;;;;;;18.02;100.00;94236.09;5076780;28;20084;-84
2023/06/12 05:09:21;;;;;;;10.98;6.10;;;;;;;18.19;100.00;94229.94;5075623;28;20044;-84
2023/06/12 05:11:48;;;;;;;9.32;5.72;;;;;;;18.36;100.00;94231.72;5076087;28;20053;-84
2023/06/12 05:14:13;;;;;;;9.45;5.88;;;;;;;18.32;100.00;94232.69;5076455;28;20383;-84
2023/06/12 05:16:38;;;;;;;10.45;6.38;;;;;;;17.43;100.00;94232.16;5079968;28;20028;-84
2023/06/12 05:19:05;;;;;;;7.30;4.93;;;;;;;18.30;100.00;94226.94;5078754;28;20433;-84
2023/06/12 05:21:30;;;;;;;6.70;4.60;;;;;;;18.39;100.00;94240.94;5096912;28;20046;-85
2023/06/12 05:23:56;;;;;;;5.72;3.80;;;;;;;18.74;100.00;94232.75;5095748;28;20379;-85
2023/06/12 05:26:23;;;;;;;6.63;4.00;;;;;;;18.81;100.00;94232.25;5095747;28;20028;-85
2023/06/12 05:28:48;;;;;;;6.40;3.83;;;;;;;18.74;100.00;94232.00;5095514;28;20028;-85
2023/06/12 05:31:14;;;;;;;5.35;4.00;;;;;;;18.64;100.00;94233.13;5095726;28;20044;-85
2023/06/12 05:33:39;;;;;;;8.00;3.75;;;;;;;19.23;100.00;94234.19;5093742;28;20036;-84
2023/06/12 05:36:07;;;;;;;11.73;4.38;;;;;;;19.06;100.00;94229.78;5102880;28;20040;-85
2023/06/12 05:38:32;;;;;;;7.38;3.83;;;;;;;19.10;100.00;94237.88;5096627;28;20028;-85
2023/06/12 05:40:58;;;;;;;11.52;3.88;;;;;;;19.72;100.00;94238.09;5095512;28;20035;-85
2023/06/12 05:43:23;;;;;;;6.35;4.00;;;;;;;19.95;100.00;94240.41;5095329;28;20024;-85
2023/06/12 05:45:49;;;;;;;6.10;3.90;;;;;;;20.16;100.00;94241.06;5095237;28;20101;-85
2023/06/12 05:48:14;;;;;;;6.57;4.75;;;;;;;19.86;100.00;94246.53;5095074;28;20035;-85
2023/06/12 05:50:40;;;;;;;6.72;4.85;;;;;;;20.29;100.00;94243.75;5078568;28;20031;-87
2023/06/12 05:53:06;;;;;;;8.13;4.20;;;;;;;20.23;100.00;94253.03;5095621;28;20024;-87
2023/06/12 05:55:31;;;;;;;5.70;4.07;;;;;;;20.36;100.00;94245.84;5096634;28;20031;-86
2023/06/12 05:57:57;;;;;;;6.63;4.15;;;;;;;20.84;100.00;94246.94;5078005;28;20024;-86
2023/06/12 06:00:23;;;;;;;7.80;3.83;;;;;;;20.93;100.00;94244.16;5096314;28;20027;-86
2023/06/12 06:02:48;;;;;;;4.53;3.40;;;;;;;21.01;100.00;94232.59;5098610;28;20038;-86
2023/06/12 06:05:14;;;;;;;8.38;3.78;;;;;;;21.07;100.00;94248.34;5082172;28;20351;-86
2023/06/12 06:07:39;;;;;;;5.07;3.83;;;;;;;20.79;100.00;94252.50;5098607;28;20036;-86
2023/06/12 06:10:05;;;;;;;9.40;4.03;;;;;;;20.92;100.00;94249.84;5098986;28;20035;-86
2023/06/12 06:12:31;;;;;;;6.88;3.53;;;;;;;20.65;100.00;94246.72;5099905;28;20437;-86
2023/06/12 06:14:56;;;;;;;7.40;4.18;;;;;;;19.76;100.00;94252.28;5098577;28;20059;-86
2023/06/12 06:17:22;;;;;;;7.65;4.18;;;;;;;20.49;100.00;94248.16;5098606;28;20040;-86
2023/06/12 06:19:47;;;;;;;8.13;4.30;;;;;;;19.71;100.00;94255.16;5099647;28;20443;-86
2023/06/12 06:22:15;;;;;;;6.03;3.53;;;;;;;20.23;100.00;94247.72;5081789;28;20069;-86
2023/06/12 06:24:41;;;;;;;5.43;3.83;;;;;;;20.36;100.00;94257.25;5098791;28;20036;-86
2023/06/12 06:27:07;;;;;;;7.70;3.85;;;;;;;19.63;100.00;94249.56;5098673;28;20035;-86
2023/06/12 06:29:33;;;;;;;5.20;4.15;;;;;;;19.86;100.00;94259.84;5098411;28;20035;-85
2023/06/12 06:31:58;;;;;;;7.15;3.88;;;;;;;20.18;100.00;94262.03;5099761;28;20031;-85
2023/06/12 06:34:25;;;;;;;7.53;3.53;;;;;;;20.36;100.00;94259.91;5081580;28;20145;-86
2023/06/12 06:36:50;;;;;;;10.27;4.68;;;;;;;19.84;100.00;94262.06;5098098;28;20028;-86
2023/06/12 06:39:16;;;;;;;8.32;3.60;;;;;;;20.09;100.00;94267.47;5098947;28;20318;-86
2023/06/12 06:41:41;;;;;;;5.60;3.80;;;;;;;20.20;100.00;94265.13;5099323;28;20028;-86
2023/06/12 06:44:06;;;;;;;5.70;3.60;;;;;;;20.34;100.00;94260.28;5098097;28;20328;-86
2023/06/12 06:46:32;;;;;;;9.20;3.42;;;;;;;19.85;100.00;94265.47;5098301;28;20502;-86
2023/06/12 06:48:57;;;;;;;7.63;4.05;;;;;;;19.52;100.00;94267.06;5098946;28;20035;-86
2023/06/12 06:51:23;;;;;;;8.73;4.20;;;;;;;19.94;100.00;94268.06;5099455;28;20043;-86
2023/06/12 06:53:48;;;;;;;7.25;3.90;;;;;;;20.18;100.00;94268.13;5097919;28;20386;-86
2023/06/12 06:56:13;;;;;;;6.20;3.88;;;;;;;20.25;100.00;94272.88;5097847;28;20036;-86
2023/06/12 06:58:39;;;;;;;14.52;4.15;;;;;;;20.10;100.00;94269.00;5097722;28;20020;-86
2023/06/12 07:01:05;;;;;;;7.55;4.50;;;;;;;20.32;100.00;94261.69;5081084;28;20028;-86
2023/06/12 07:03:30;;;;;;;10.20;5.30;;;;;;;20.38;100.00;94268.38;5097784;28;20059;-86
2023/06/12 07:05:56;;;;;;;8.32;5.63;;;;;;;19.87;100.00;94271.22;5098147;28;20504;-86
2023/06/12 07:08:21;;;;;;;13.13;6.20;;;;;;;20.03;100.00;94277.53;5098271;28;20032;-86
2023/06/12 07:10:46;;;;;;;7.32;4.60;;;;;;;20.52;100.00;94270.69;5098750;28;20050;-87
2023/06/12 07:13:12;;;;;;;5.88;4.03;;;;;;;20.72;100.00;94263.69;5080949;28;20030;-86
2023/06/12 07:15:37;;;;;;;9.10;4.15;;;;;;;20.64;100.00;94269.91;5097643;28;20028;-85
2023/06/12 07:18:03;;;;;;;7.32;3.85;;;;;;;20.58;100.00;94269.34;5097670;28;20036;-85
2023/06/12 07:20:28;;;;;;;5.70;4.15;;;;;;;20.84;100.00;94275.47;5097353;28;20040;-85
2023/06/12 07:22:54;;;;;;;11.88;5.63;;;;;;;20.66;100.00;94274.91;5097341;28;20028;-85
2023/06/12 07:25:19;;;;;;;11.98;5.63;;;;;;;21.21;100.00;94262.06;5097541;28;20039;-85
2023/06/12 07:27:45;;;;;;;13.77;6.93;;;;;;;20.66;100.00;94273.03;5097369;28;20030;-84
2023/06/12 07:30:11;;;;;;;12.20;5.00;;;;;;;20.32;100.00;94269.69;5097705;28;20031;-85
2023/06/12 07:32:36;;;;;;;13.52;8.25;;;;;;;20.93;100.00;94273.44;5098635;28;20032;-85
2023/06/12 07:35:02;;;;;;;10.07;6.75;;;;;;;21.28;100.00;94269.47;5080356;28;20035;-85
2023/06/12 07:37:29;;;;;;;7.50;5.43;;;;;;;21.60;100.00;94270.38;5097369;28;20064;-85
2023/06/12 07:39:54;;;;;;;8.88;4.10;;;;;;;22.02;100.00;94271.09;5096869;28;20024;-85
2023/06/12 07:42:20;;;;;;;11.50;6.28;;;;;;;21.86;100.00;94269.19;5096933;28;20042;-85
2023/06/12 07:44:45;;;;;;;6.72;4.78;;;;;;;22.51;100.00;94272.66;5096891;28;20020;-85
2023/06/12 07:47:11;;;;;;;9.38;5.13;;;;;;;22.90;100.00;94277.34;5096832;28;20161;-85
2023/06/12 07:49:36;;;;;;;9.20;5.43;;;;;;;23.02;100.00;94273.78;5096520;28;20101;-85
2023/06/12 07:52:02;;;;;;;9.40;5.30;;;;;;;22.42;100.00;94272.81;5098269;28;20165;-85
2023/06/12 07:54:27;;;;;;;8.80;4.90;;;;;;;22.98;100.00;94268.38;5097860;28;20476;-85
2023/06/12 07:56:53;;;;;;;7.05;4.90;;;;;;;22.10;100.00;94267.50;5096664;28;20027;-85
2023/06/12 07:59:19;;;;;;;9.55;5.28;;;;;;;22.01;100.00;94264.19;5097661;28;20052;-85
2023/06/12 08:01:45;;;;;;;8.77;5.95;;;;;;;21.82;100.00;94260.31;5096860;28;20464;-85
2023/06/12 08:04:10;;;;;;;11.35;4.65;;;;;;;21.64;100.00;94256.34;5130743;27;20032;-85
2023/06/12 08:06:38;;;;;;;11.32;5.28;;;;;;;21.80;100.00;94261.75;5096770;28;20114;-84
2023/06/12 08:09:03;;;;;;;8.38;5.10;;;;;;;22.62;100.00;94261.47;5130320;27;20036;-85
2023/06/12 08:11:29;;;;;;;6.30;4.22;;;;;;;22.02;100.00;94268.41;5096408;28;20028;-85
2023/06/12 08:13:55;;;;;;;5.57;4.38;;;;;;;22.72;100.00;94267.06;5097801;28;20463;-85
2023/06/12 08:16:22;;;;;;;10.05;4.47;;;;;;;23.62;100.00;94259.34;5096641;28;20040;-85
2023/06/12 08:18:48;;;;;;;8.07;4.13;;;;;;;23.99;100.00;94268.81;5096478;28;20019;-85
2023/06/12 08:21:13;;;;;;;5.63;3.88;;;;;;;24.82;100.00;94264.03;5097265;28;20402;-85
2023/06/12 08:23:38;;;;;;;8.30;4.70;;;;;;;24.92;100.00;94260.72;5097188;28;20058;-85
2023/06/12 08:26:04;;;;;;;6.63;3.95;;;;;;;24.68;100.00;94269.91;5079510;28;20115;-85
2023/06/12 08:28:30;;;;;;;7.40;4.47;;;;;;;23.60;100.00;94258.94;5095798;28;20040;-85
2023/06/12 08:30:57;;;;;;;4.68;3.90;;;;;;;24.12;100.00;94267.53;5079089;28;20330;-85
2023/06/12 08:33:24;;;;;;;7.68;4.25;;;;;;;23.21;100.00;94272.28;5096071;28;20440;-85
2023/06/12 08:35:49;;;;;;;7.25;4.30;;;;;;;23.22;100.00;94271.91;5097519;28;20471;-85
2023/06/12 08:38:15;;;;;;;6.75;3.78;;;;;;;23.33;100.00;94266.03;5097123;28;20020;-85
2023/06/12 08:40:40;;;;;;;5.97;4.53;;;;;;;22.60;100.00;94272.50;5096117;28;20028;-84
2023/06/12 08:43:06;;;;;;;7.93;3.95;;;;;;;22.79;100.00;94268.31;5095863;28;20028;-85
2023/06/12 08:45:33;;;;;;;7.65;4.10;;;;;;;22.78;100.00;94267.56;5079234;28;20028;-85
2023/06/12 08:47:59;;;;;;;5.43;4.03;;;;;;;23.12;100.00;94272.47;5112867;28;20048;-85
2023/06/12 08:50:25;;;;;;;6.40;4.32;;;;;;;23.21;100.00;94272.28;5095854;28;20035;-85
2023/06/12 08:52:51;;;;;;;8.73;4.20;;;;;;;22.79;100.00;94271.00;5096097;28;20035;-85
2023/06/12 08:55:18;;;;;;;5.57;3.90;;;;;;;23.40;100.00;94269.63;5096922;28;20028;-85
2023/06/12 08:57:43;;;;;;;4.25;3.40;;;;;;;23.30;100.00;94265.63;5095599;28;20031;-84
2023/06/12 09:00:13;;;;;;;5.97;4.15;;;;;;;23.55;100.00;94262.66;5095948;28;20081;-85
2023/06/12 09:02:44;;;;;;;4.78;3.63;;;;;;;23.37;100.00;94277.56;5097209;28;20038;-85
2023/06/12 09:05:15;;;;;;;5.50;3.80;;;;;;;23.11;100.00;94261.00;5096021;28;20098;-85
2023/06/12 09:07:44;;;;;;;4.80;3.95;;;;;;;23.16;100.00;94268.72;5095404;28;20505;-85
2023/06/12 09:10:09;;;;;;;6.30;3.70;;;;;;;24.11;100.00;94260.63;5078956;28;20072;-85
2023/06/12 09:12:35;;;;;;;5.30;3.63;;;;;;;23.95;100.00;94258.03;5078966;28;20034;-85
2023/06/12 09:15:01;;;;;;;6.22;3.95;;;;;;;22.99;100.00;94269.91;5078930;28;20379;-85
2023/06/12 09:17:30;;;;;;;5.70;3.55;;;;;;;23.28;100.00;94262.53;5129556;28;20528;-85
2023/06/12 09:19:55;;;;;;;7.22;3.95;;;;;;;23.70;100.00;94261.03;5128986;28;20035;-85
2023/06/12 09:22:21;;;;;;;7.30;3.30;;;;;;;24.53;100.00;94259.00;5078859;28;20028;-85
2023/06/12 09:24:47;;;;;;;5.43;3.83;;;;;;;24.30;100.00;94250.97;5078860;28;20028;-85
2023/06/12 09:27:13;;;;;;;5.60;3.70;;;;;;;22.75;100.00;94254.91;5078810;28;20122;-85
2023/06/12 09:29:39;;;;;;;4.63;3.42;;;;;;;22.71;100.00;94259.38;5095119;28;20508;-85
2023/06/12 09:32:10;;;;;;;6.38;3.33;;;;;;;22.94;100.00;94256.06;5129481;28;20349;-86
2023/06/12 09:34:35;;;;;;;9.63;3.95;;;;;;;23.49;100.00;94258.72;5095688;28;20455;-85
2023/06/12 09:37:06;;;;;;;6.63;3.80;;;;;;;22.83;100.00;94253.94;5099232;28;20032;-84
2023/06/12 09:39:32;;;;;;;5.90;3.95;;;;;;;22.83;100.00;94259.25;5098919;28;20020;-84
2023/06/12 09:41:58;;;;;;;8.75;3.72;;;;;;;22.17;100.00;94264.22;5099367;28;20024;-85
2023/06/12 09:44:25;;;;;;;7.38;3.72;;;;;;;21.94;100.00;94261.34;5099475;28;20088;-85
2023/06/12 09:46:51;;;;;;;6.35;3.88;;;;;;;21.85;100.00;94267.63;5100648;28;20469;-85
2023/06/12 09:49:22;;;;;;;6.80;4.05;;;;;;;22.22;100.00;94266.63;5099208;28;20057;-85
2023/06/12 09:51:49;;;;;;;4.80;3.70;;;;;;;22.70;100.00;94257.81;5082883;28;20035;-85
2023/06/12 09:54:16;;;;;;;5.30;3.80;;;;;;;23.04;100.00;94266.22;5099157;28;20051;-85
2023/06/12 09:56:44;;;;;;;6.93;3.97;;;;;;;22.42;100.00;94264.81;5082317;28;20165;-84
2023/06/12 09:59:16;;;;;;;6.57;3.53;;;;;;;22.40;100.00;94261.72;5098750;28;20441;-84
2023/06/12 10:02:05;;;;;;;7.20;3.50;;;;;;;22.61;100.00;94263.34;5099324;28;20027;-84
2023/06/12 10:04:37;;;;;;;4.78;3.95;;;;;;;22.72;100.00;94259.03;5099220;28;20120;-84
2023/06/12 10:07:08;;;;;;;5.10;4.03;;;;;;;22.35;100.00;94256.63;5133036;27;20051;-85
2023/06/12 10:09:33;;;;;;;7.53;4.15;;;;;;;21.30;100.00;94251.28;5132279;27;20036;-85
2023/06/12 10:11:59;;;;;;;7.32;5.20;;;;;;;21.16;100.00;94249.00;5099056;28;20460;-85
2023/06/12 10:14:26;;;;;;;6.22;4.63;;;;;;;20.89;100.00;94253.94;5099036;28;20039;-85
2023/06/12 10:16:54;;;;;;;6.57;4.63;;;;;;;21.22;100.00;94244.97;5098686;28;20031;-85
2023/06/12 10:19:22;;;;;;;7.15;4.90;;;;;;;22.33;100.00;94245.53;5098529;28;20135;-84
2023/06/12 10:21:47;;;;;;;6.88;4.90;;;;;;;22.87;100.00;94246.00;5098535;28;20035;-85
2023/06/12 10:24:13;;;;;;;10.63;4.70;;;;;;;23.98;100.00;94240.50;5098653;28;20024;-85
2023/06/12 10:26:39;;;;;;;10.15;5.20;;;;;;;24.06;100.00;94236.81;5098690;28;20036;-85
2023/06/12 10:29:33;;;;;;;5.97;4.82;;;;;;;24.18;100.00;94237.78;5099433;28;20038;-84
2023/06/12 10:32:11;;;;;;;9.90;4.22;;;;;;;24.79;100.00;94238.72;5098425;28;20077;-85
2023/06/12 10:34:41;;;;;;;7.70;4.90;;;;;;;24.88;100.00;94238.47;5098448;28;20028;-86
2023/06/12 10:37:39;;;;;;;7.25;5.03;;;;;;;23.88;100.00;94246.44;5098242;28;20024;-85
2023/06/12 10:40:11;;;;;;;6.68;4.85;;;;;;;23.86;100.00;94244.88;5098219;28;20020;-85
2023/06/12 10:42:44;;;;;;;6.03;4.65;;;;;;;24.03;100.00;94229.53;5099351;28;20024;-84
2023/06/12 10:45:27;;;;;;;9.23;4.95;;;;;;;23.41;100.00;94231.06;5099258;28;20023;-85
2023/06/12 10:48:02;;;;;;;6.00;4.95;;;;;;;23.49;100.00;94229.31;5097320;28;20032;-85
2023/06/12 10:50:34;;;;;;;9.32;5.38;;;;;;;23.24;100.00;94226.13;5100034;28;20032;-85
2023/06/12 10:53:01;;;;;;;6.20;5.03;;;;;;;24.13;100.00;94230.81;5098354;28;20119;-85
2023/06/12 10:55:26;;;;;;;7.63;4.82;;;;;;;24.09;100.00;94230.00;5132084;27;20456;-84
2023/06/12 10:58:13;;;;;;;4.90;4.07;;;;;;;24.67;100.00;94225.50;5097891;28;20028;-85
2023/06/12 11:00:43;;;;;;;8.45;5.45;;;;;;;24.55;100.00;94224.59;5097665;28;20032;-85
2023/06/12 11:03:11;;;;;;;8.52;5.30;;;;;;;24.38;100.00;94225.84;5099214;28;20058;-85
2023/06/12 11:05:37;;;;;;;8.80;5.18;;;;;;;23.36;100.00;94218.00;5114798;28;20341;-85
2023/06/12 11:08:05;;;;;;;8.30;5.30;;;;;;;23.19;100.00;94219.16;5128045;27;20126;-84
2023/06/12 11:10:32;;;;;;;6.82;5.25;;;;;;;22.88;100.00;94220.84;5094318;28;20044;-85
2023/06/12 11:12:58;;;;;;;6.70;4.90;;;;;;;23.05;100.00;94225.00;5078418;28;20032;-85
2023/06/12 11:15:24;;;;;;;9.65;5.47;;;;;;;22.91;100.00;94228.13;5094004;28;20039;-85
2023/06/12 11:17:50;;;;;;;11.02;5.20;;;;;;;22.80;100.00;94227.13;5092181;28;20024;-85
2023/06/12 11:20:18;;;;;;;7.18;4.97;;;;;;;22.79;100.00;94218.38;5097684;28;20352;-85
2023/06/12 11:22:45;;;;;;;6.75;4.60;;;;;;;22.05;100.00;94227.72;5097197;28;20391;-85